sensor_id;sensor_type;location;lat;lon;timestamp;pressure;altitude;pressure_sealevel;temperature;humidity
60019;BME280;45870;42.528;26.740;2022-12-29T00:02:15;100850.06;;;9.32;44.90
60019;BME280;45870;42.528;26.740;2022-12-29T00:04:41;100876.66;;;9.42;45.22
60019;BME280;45870;42.528;26.740;2022-12-29T00:07:07;100889.78;;;9.51;44.54
60019;BME280;45870;42.528;26.740;2022-12-29T00:09:34;100917.28;;;9.75;44.75
60019;BME280;45870;42.528;26.740;2022-12-29T00:12:00;100888.91;;;9.44;44.91
60019;BME280;45870;42.528;26.740;2022-12-29T00:14:27;100846.06;;;9.22;44.34
60019;BME280;45870;42.528;26.740;2022-12-29T00:17:11;100927.19;;;9.68;44.42
60019;BME280;45870;42.528;26.740;2022-12-29T00:19:37;100869.31;;;9.29;44.28
60019;BME280;45870;42.528;26.740;2022-12-29T00:22:22;100928.88;;;9.41;44.35
60019;BME280;45870;42.528;26.740;2022-12-29T00:25:09;100925.25;;;9.55;44.66
60019;BME280;45870;42.528;26.740;2022-12-29T00:27:54;100931.19;;;9.44;44.88
60019;BME280;45870;42.528;26.740;2022-12-29T00:30:38;100893.50;;;9.23;45.53
60019;BME280;45870;42.528;26.740;2022-12-29T00:33:28;100923.59;;;9.26;45.03
60019;BME280;45870;42.528;26.740;2022-12-29T00:36:32;100913.69;;;9.06;44.29
60019;BME280;45870;42.528;26.740;2022-12-29T00:39:09;100920.50;;;9.29;43.45
60019;BME280;45870;42.528;26.740;2022-12-29T00:41:54;100914.63;;;9.19;44.76
60019;BME280;45870;42.528;26.740;2022-12-29T00:44:38;100913.44;;;9.00;44.70
60019;BME280;45870;42.528;26.740;2022-12-29T00:47:04;100918.00;;;9.28;44.90
60019;BME280;45870;42.528;26.740;2022-12-29T00:49:30;100882.34;;;9.26;43.96
60019;BME280;45870;42.528;26.740;2022-12-29T00:52:00;100844.69;;;8.77;45.25
60019;BME280;45870;42.528;26.740;2022-12-29T00:54:27;100907.16;;;9.15;44.66
60019;BME280;45870;42.528;26.740;2022-12-29T00:56:53;100825.59;;;8.72;44.26
60019;BME280;45870;42.528;26.740;2022-12-29T00:59:20;100906.34;;;9.21;44.56
60019;BME280;45870;42.528;26.740;2022-12-29T01:01:47;100866.13;;;9.19;44.21
60019;BME280;45870;42.528;26.740;2022-12-29T01:04:13;100882.47;;;9.11;44.64
60019;BME280;45870;42.528;26.740;2022-12-29T01:06:40;100906.63;;;9.32;44.41
60019;BME280;45870;42.528;26.740;2022-12-29T01:09:06;100865.91;;;8.44;46.29
60019;BME280;45870;42.528;26.740;2022-12-29T01:11:51;100890.22;;;8.99;44.80
60019;BME280;45870;42.528;26.740;2022-12-29T01:14:18;100894.66;;;9.07;44.06
60019;BME280;45870;42.528;26.740;2022-12-29T01:16:44;100890.81;;;8.95;44.55
60019;BME280;45870;42.528;26.740;2022-12-29T01:19:10;100858.34;;;8.75;44.85
60019;BME280;45870;42.528;26.740;2022-12-29T01:21:36;100895.22;;;9.30;44.49
60019;BME280;45870;42.528;26.740;2022-12-29T01:24:02;100889.88;;;9.71;43.61
60019;BME280;45870;42.528;26.740;2022-12-29T01:26:28;100880.78;;;9.79;44.12
60019;BME280;45870;42.528;26.740;2022-12-29T01:28:53;100838.63;;;9.65;43.53
60019;BME280;45870;42.528;26.740;2022-12-29T01:31:19;100876.91;;;9.19;44.56
60019;BME280;45870;42.528;26.740;2022-12-29T01:33:45;100879.47;;;9.27;44.80
60019;BME280;45870;42.528;26.740;2022-12-29T01:36:13;100873.34;;;9.12;44.89
60019;BME280;45870;42.528;26.740;2022-12-29T01:38:40;100876.47;;;9.50;44.16
60019;BME280;45870;42.528;26.740;2022-12-29T01:41:07;100846.31;;;9.27;44.18
60019;BME280;45870;42.528;26.740;2022-12-29T01:43:42;100836.72;;;9.18;44.26
60019;BME280;45870;42.528;26.740;2022-12-29T01:46:28;100856.59;;;9.17;44.34
60019;BME280;45870;42.528;26.740;2022-12-29T01:51:44;100857.47;;;9.24;45.54
60019;BME280;45870;42.528;26.740;2022-12-29T01:54:24;100829.34;;;9.33;44.77
60019;BME280;45870;42.528;26.740;2022-12-29T01:56:55;100808.84;;;9.32;45.37
60019;BME280;45870;42.528;26.740;2022-12-29T01:59:27;100854.47;;;9.81;45.52
60019;BME280;45870;42.528;26.740;2022-12-29T02:01:54;100840.34;;;10.26;43.80
60019;BME280;45870;42.528;26.740;2022-12-29T02:04:22;100837.22;;;10.23;43.71
60019;BME280;45870;42.528;26.740;2022-12-29T02:06:58;100821.31;;;9.87;45.40
60019;BME280;45870;42.528;26.740;2022-12-29T02:09:26;100828.91;;;10.24;44.51
60019;BME280;45870;42.528;26.740;2022-12-29T02:11:52;100830.50;;;9.99;45.09
60019;BME280;45870;42.528;26.740;2022-12-29T02:14:18;100801.47;;;10.08;44.70
60019;BME280;45870;42.528;26.740;2022-12-29T02:20:01;100832.47;;;10.38;44.56
60019;BME280;45870;42.528;26.740;2022-12-29T02:22:47;100824.28;;;10.12;44.96
60019;BME280;45870;42.528;26.740;2022-12-29T02:31:46;100830.31;;;6.60;52.28
60019;BME280;45870;42.528;26.740;2022-12-29T02:34:41;100845.81;;;8.89;47.83
60019;BME280;45870;42.528;26.740;2022-12-29T02:37:34;100836.94;;;9.57;45.71
60019;BME280;45870;42.528;26.740;2022-12-29T02:40:23;100833.88;;;9.67;45.75
60019;BME280;45870;42.528;26.740;2022-12-29T02:43:06;100830.84;;;9.83;44.89
60019;BME280;45870;42.528;26.740;2022-12-29T02:45:45;100817.16;;;9.84;43.81
60019;BME280;45870;42.528;26.740;2022-12-29T02:48:37;100830.50;;;9.99;44.21
60019;BME280;45870;42.528;26.740;2022-12-29T02:51:18;100837.59;;;9.66;44.09
60019;BME280;45870;42.528;26.740;2022-12-29T02:53:45;100838.22;;;9.27;44.69
60019;BME280;45870;42.528;26.740;2022-12-29T02:56:30;100759.28;;;8.64;44.92
60019;BME280;45870;42.528;26.740;2022-12-29T02:58:55;100836.53;;;8.70;46.66
60019;BME280;45870;42.528;26.740;2022-12-29T03:09:50;100837.16;;;9.21;43.95
60019;BME280;45870;42.528;26.740;2022-12-29T03:12:30;100841.94;;;8.98;44.30
60019;BME280;45870;42.528;26.740;2022-12-29T03:15:24;100829.31;;;9.26;44.20
60019;BME280;45870;42.528;26.740;2022-12-29T03:18:35;100832.75;;;9.14;43.97
60019;BME280;45870;42.528;26.740;2022-12-29T03:23:39;100829.19;;;8.79;45.60
60019;BME280;45870;42.528;26.740;2022-12-29T03:26:10;100833.47;;;9.01;44.12
60019;BME280;45870;42.528;26.740;2022-12-29T03:28:44;100832.50;;;9.09;43.55
60019;BME280;45870;42.528;26.740;2022-12-29T03:31:12;100831.47;;;9.10;43.43
60019;BME280;45870;42.528;26.740;2022-12-29T03:33:39;100835.41;;;8.58;45.19
60019;BME280;45870;42.528;26.740;2022-12-29T03:36:09;100827.75;;;8.83;45.28
60019;BME280;45870;42.528;26.740;2022-12-29T03:38:52;100814.53;;;9.16;44.21
60019;BME280;45870;42.528;26.740;2022-12-29T03:41:24;100828.44;;;9.19;44.22
60019;BME280;45870;42.528;26.740;2022-12-29T03:43:51;100751.47;;;9.03;43.42
60019;BME280;45870;42.528;26.740;2022-12-29T03:46:17;100819.81;;;9.37;43.90
60019;BME280;45870;42.528;26.740;2022-12-29T03:48:42;100838.25;;;9.33;45.06
60019;BME280;45870;42.528;26.740;2022-12-29T03:51:08;100837.22;;;9.34;44.88
60019;BME280;45870;42.528;26.740;2022-12-29T03:53:34;100833.88;;;9.32;45.12
60019;BME280;45870;42.528;26.740;2022-12-29T03:55:59;100824.31;;;9.23;44.92
60019;BME280;45870;42.528;26.740;2022-12-29T03:58:25;100799.84;;;8.90;44.61
60019;BME280;45870;42.528;26.740;2022-12-29T04:00:51;100823.50;;;8.95;45.27
60019;BME280;45870;42.528;26.740;2022-12-29T04:03:17;100802.00;;;8.74;44.48
60019;BME280;45870;42.528;26.740;2022-12-29T04:05:42;100844.25;;;9.01;44.07
60019;BME280;45870;42.528;26.740;2022-12-29T04:08:08;100828.41;;;8.64;44.84
60019;BME280;45870;42.528;26.740;2022-12-29T04:10:34;100818.94;;;8.68;45.12
60019;BME280;45870;42.528;26.740;2022-12-29T04:13:00;100773.53;;;8.58;44.41
60019;BME280;45870;42.528;26.740;2022-12-29T04:15:25;100843.16;;;9.23;44.30
60019;BME280;45870;42.528;26.740;2022-12-29T04:17:51;100834.53;;;9.34;43.90
60019;BME280;45870;42.528;26.740;2022-12-29T04:20:17;100790.25;;;8.81;43.46
60019;BME280;45870;42.528;26.740;2022-12-29T04:23:02;100838.38;;;8.91;44.25
60019;BME280;45870;42.528;26.740;2022-12-29T04:25:30;100840.69;;;8.73;43.88
60019;BME280;45870;42.528;26.740;2022-12-29T04:27:56;100838.34;;;8.63;43.67
60019;BME280;45870;42.528;26.740;2022-12-29T04:30:22;100849.97;;;8.28;45.13
60019;BME280;45870;42.528;26.740;2022-12-29T04:32:47;100849.31;;;8.83;44.50
60019;BME280;45870;42.528;26.740;2022-12-29T04:35:13;100847.19;;;8.78;44.63
60019;BME280;45870;42.528;26.740;2022-12-29T04:37:39;100806.72;;;8.93;45.07
60019;BME280;45870;42.528;26.740;2022-12-29T04:40:05;100841.09;;;8.97;44.01
60019;BME280;45870;42.528;26.740;2022-12-29T04:42:31;100824.91;;;8.91;44.25
60019;BME280;45870;42.528;26.740;2022-12-29T04:44:57;100842.63;;;8.79;44.29
60019;BME280;45870;42.528;26.740;2022-12-29T04:47:22;100804.16;;;8.36;44.52
60019;BME280;45870;42.528;26.740;2022-12-29T04:49:48;100845.78;;;8.82;43.52
60019;BME280;45870;42.528;26.740;2022-12-29T04:52:14;100846.53;;;8.13;46.21
60019;BME280;45870;42.528;26.740;2022-12-29T04:54:40;100850.47;;;8.52;44.97
60019;BME280;45870;42.528;26.740;2022-12-29T04:57:05;100780.75;;;8.15;44.25
60019;BME280;45870;42.528;26.740;2022-12-29T04:59:31;100813.53;;;8.25;44.23
60019;BME280;45870;42.528;26.740;2022-12-29T05:01:57;100824.66;;;8.37;44.73
60019;BME280;45870;42.528;26.740;2022-12-29T05:04:23;100857.38;;;8.83;44.57
60019;BME280;45870;42.528;26.740;2022-12-29T05:06:48;100841.16;;;8.76;44.85
60019;BME280;45870;42.528;26.740;2022-12-29T05:09:14;100850.28;;;8.75;44.33
60019;BME280;45870;42.528;26.740;2022-12-29T05:11:40;100830.16;;;8.29;44.94
60019;BME280;45870;42.528;26.740;2022-12-29T05:14:06;100835.78;;;8.55;44.79
60019;BME280;45870;42.528;26.740;2022-12-29T05:16:31;100852.19;;;8.81;43.98
60019;BME280;45870;42.528;26.740;2022-12-29T05:18:57;100848.88;;;8.58;43.86
60019;BME280;45870;42.528;26.740;2022-12-29T05:21:23;100800.59;;;8.14;44.50
60019;BME280;45870;42.528;26.740;2022-12-29T05:23:49;100823.69;;;8.44;43.85
60019;BME280;45870;42.528;26.740;2022-12-29T05:26:14;100843.16;;;8.46;44.83
60019;BME280;45870;42.528;26.740;2022-12-29T05:28:40;100838.63;;;8.47;44.46
60019;BME280;45870;42.528;26.740;2022-12-29T05:31:06;100720.75;;;7.72;44.83
60019;BME280;45870;42.528;26.740;2022-12-29T05:33:32;100837.13;;;8.66;44.00
60019;BME280;45870;42.528;26.740;2022-12-29T05:36:04;100752.00;;;8.16;44.48
60019;BME280;45870;42.528;26.740;2022-12-29T05:38:29;100837.31;;;8.85;44.48
60019;BME280;45870;42.528;26.740;2022-12-29T05:40:55;100830.81;;;8.80;44.42
60019;BME280;45870;42.528;26.740;2022-12-29T05:43:21;100814.59;;;8.45;45.63
60019;BME280;45870;42.528;26.740;2022-12-29T05:45:48;100837.75;;;8.89;45.29
60019;BME280;45870;42.528;26.740;2022-12-29T05:48:15;100839.28;;;8.77;45.33
60019;BME280;45870;42.528;26.740;2022-12-29T05:50:42;100780.50;;;8.52;44.32
60019;BME280;45870;42.528;26.740;2022-12-29T05:53:08;100844.31;;;8.37;44.93
60019;BME280;45870;42.528;26.740;2022-12-29T05:55:34;100838.75;;;8.60;44.85
60019;BME280;45870;42.528;26.740;2022-12-29T05:58:00;100740.38;;;8.09;44.23
60019;BME280;45870;42.528;26.740;2022-12-29T06:00:25;100844.69;;;8.77;44.15
60019;BME280;45870;42.528;26.740;2022-12-29T06:02:51;100854.09;;;6.40;50.45
60019;BME280;45870;42.528;26.740;2022-12-29T06:05:17;100799.91;;;8.27;45.54
60019;BME280;45870;42.528;26.740;2022-12-29T06:07:43;100855.44;;;8.77;44.83
60019;BME280;45870;42.528;26.740;2022-12-29T06:10:10;100865.13;;;9.20;44.32
60019;BME280;45870;42.528;26.740;2022-12-29T06:12:35;100663.59;;;8.06;44.17
60019;BME280;45870;42.528;26.740;2022-12-29T06:15:01;100862.03;;;9.23;42.98
60019;BME280;45870;42.528;26.740;2022-12-29T06:17:27;100837.34;;;8.92;44.66
60019;BME280;45870;42.528;26.740;2022-12-29T06:19:52;100863.81;;;9.44;44.79
60019;BME280;45870;42.528;26.740;2022-12-29T06:22:18;100871.47;;;9.40;44.99
60019;BME280;45870;42.528;26.740;2022-12-29T06:24:44;100866.94;;;9.47;44.87
60019;BME280;45870;42.528;26.740;2022-12-29T06:27:10;100858.03;;;8.64;47.51
60019;BME280;45870;42.528;26.740;2022-12-29T06:29:35;100693.16;;;8.83;44.73
60019;BME280;45870;42.528;26.740;2022-12-29T06:32:03;100866.34;;;10.53;44.72
60019;BME280;45870;42.528;26.740;2022-12-29T06:34:29;100868.25;;;10.86;43.47
60019;BME280;45870;42.528;26.740;2022-12-29T06:36:54;100871.09;;;11.57;43.36
60019;BME280;45870;42.528;26.740;2022-12-29T06:39:20;100805.84;;;11.33;43.28
60019;BME280;45870;42.528;26.740;2022-12-29T06:41:46;100859.19;;;11.84;43.71
60019;BME280;45870;42.528;26.740;2022-12-29T06:44:12;100858.91;;;12.36;44.19
60019;BME280;45870;42.528;26.740;2022-12-29T06:46:37;100879.28;;;12.77;43.13
60019;BME280;45870;42.528;26.740;2022-12-29T06:49:03;100883.44;;;12.48;43.86
60019;BME280;45870;42.528;26.740;2022-12-29T06:51:29;100878.94;;;12.29;41.60
60019;BME280;45870;42.528;26.740;2022-12-29T06:53:54;100877.31;;;12.21;42.58
60019;BME280;45870;42.528;26.740;2022-12-29T06:56:20;100882.06;;;12.32;43.07
60019;BME280;45870;42.528;26.740;2022-12-29T06:58:46;100884.47;;;12.78;42.59
60019;BME280;45870;42.528;26.740;2022-12-29T07:01:11;100876.53;;;12.21;42.99
60019;BME280;45870;42.528;26.740;2022-12-29T07:03:37;100890.00;;;11.63;44.26
60019;BME280;45870;42.528;26.740;2022-12-29T07:06:03;100887.94;;;12.61;42.53
60019;BME280;45870;42.528;26.740;2022-12-29T07:08:29;100879.16;;;11.70;44.29
60019;BME280;45870;42.528;26.740;2022-12-29T07:10:54;100753.59;;;11.52;43.67
60019;BME280;45870;42.528;26.740;2022-12-29T07:13:20;100869.97;;;12.97;42.99
60019;BME280;45870;42.528;26.740;2022-12-29T07:15:46;100891.00;;;13.27;42.46
60019;BME280;45870;42.528;26.740;2022-12-29T07:18:53;100893.22;;;14.27;42.68
60019;BME280;45870;42.528;26.740;2022-12-29T07:21:19;100702.44;;;13.90;40.92
60019;BME280;45870;42.528;26.740;2022-12-29T07:23:45;100845.22;;;15.85;38.97
60019;BME280;45870;42.528;26.740;2022-12-29T07:26:12;100894.13;;;14.69;40.00
60019;BME280;45870;42.528;26.740;2022-12-29T07:28:38;100891.94;;;14.30;40.96
60019;BME280;45870;42.528;26.740;2022-12-29T07:31:05;100895.88;;;13.61;42.12
60019;BME280;45870;42.528;26.740;2022-12-29T07:33:32;100836.88;;;11.18;46.50
60019;BME280;45870;42.528;26.740;2022-12-29T07:35:58;100890.25;;;11.42;47.29
60019;BME280;45870;42.528;26.740;2022-12-29T07:38:24;100894.44;;;11.05;47.21
60019;BME280;45870;42.528;26.740;2022-12-29T07:40:50;100894.03;;;12.49;45.14
60019;BME280;45870;42.528;26.740;2022-12-29T07:43:16;100894.50;;;12.40;44.66
60019;BME280;45870;42.528;26.740;2022-12-29T07:45:42;100895.59;;;12.32;45.12
60019;BME280;45870;42.528;26.740;2022-12-29T07:48:08;100889.84;;;13.77;41.64
60019;BME280;45870;42.528;26.740;2022-12-29T07:50:34;100888.28;;;12.71;43.54
60019;BME280;45870;42.528;26.740;2022-12-29T07:53:00;100835.84;;;11.89;45.23
60019;BME280;45870;42.528;26.740;2022-12-29T07:55:25;100726.50;;;12.35;42.75
60019;BME280;45870;42.528;26.740;2022-12-29T07:57:55;100802.56;;;13.62;40.91
60019;BME280;45870;42.528;26.740;2022-12-29T08:00:21;100899.03;;;13.58;42.58
60019;BME280;45870;42.528;26.740;2022-12-29T08:02:48;100890.09;;;12.52;45.24
60019;BME280;45870;42.528;26.740;2022-12-29T08:05:14;100892.56;;;11.38;47.48
60019;BME280;45870;42.528;26.740;2022-12-29T08:07:43;100837.22;;;11.41;47.77
60019;BME280;45870;42.528;26.740;2022-12-29T08:10:10;100892.75;;;12.59;45.39
60019;BME280;45870;42.528;26.740;2022-12-29T08:12:38;100861.59;;;12.43;45.74
60019;BME280;45870;42.528;26.740;2022-12-29T08:15:05;100888.31;;;11.75;47.28
60019;BME280;45870;42.528;26.740;2022-12-29T08:17:31;100897.41;;;12.00;47.27
60019;BME280;45870;42.528;26.740;2022-12-29T08:19:56;100897.28;;;11.63;48.73
60019;BME280;45870;42.528;26.740;2022-12-29T08:22:22;100902.91;;;12.25;47.31
60019;BME280;45870;42.528;26.740;2022-12-29T08:24:48;100896.09;;;13.17;45.15
60019;BME280;45870;42.528;26.740;2022-12-29T08:27:14;100853.16;;;11.75;48.76
60019;BME280;45870;42.528;26.740;2022-12-29T08:29:40;100860.63;;;12.93;45.70
60019;BME280;45870;42.528;26.740;2022-12-29T08:32:06;100897.66;;;12.99;46.72
60019;BME280;45870;42.528;26.740;2022-12-29T08:34:32;100869.72;;;14.03;44.41
60019;BME280;45870;42.528;26.740;2022-12-29T08:36:58;100889.59;;;11.60;49.77
60019;BME280;45870;42.528;26.740;2022-12-29T08:39:24;100872.31;;;11.74;49.68
60019;BME280;45870;42.528;26.740;2022-12-29T08:41:49;100888.88;;;13.54;46.19
60019;BME280;45870;42.528;26.740;2022-12-29T08:44:15;100890.78;;;11.90;50.08
60019;BME280;45870;42.528;26.740;2022-12-29T08:46:41;100899.84;;;13.40;46.85
60019;BME280;45870;42.528;26.740;2022-12-29T08:49:07;100886.13;;;14.44;44.27
60019;BME280;45870;42.528;26.740;2022-12-29T08:51:33;100882.06;;;13.26;47.78
60019;BME280;45870;42.528;26.740;2022-12-29T08:53:59;100861.13;;;13.51;46.49
60019;BME280;45870;42.528;26.740;2022-12-29T08:56:25;100865.44;;;11.78;51.58
60019;BME280;45870;42.528;26.740;2022-12-29T08:58:52;100800.03;;;12.57;48.94
60019;BME280;45870;42.528;26.740;2022-12-29T09:01:18;100852.94;;;12.90;48.87
60019;BME280;45870;42.528;26.740;2022-12-29T09:03:45;100873.16;;;13.19;48.48
60019;BME280;45870;42.528;26.740;2022-12-29T09:06:11;100868.22;;;13.52;48.53
60019;BME280;45870;42.528;26.740;2022-12-29T09:08:37;100784.88;;;13.78;46.52
60019;BME280;45870;42.528;26.740;2022-12-29T09:11:10;100777.59;;;12.99;47.92
60019;BME280;45870;42.528;26.740;2022-12-29T09:13:36;100847.97;;;13.06;49.65
60019;BME280;45870;42.528;26.740;2022-12-29T09:16:03;100780.03;;;12.58;50.37
60019;BME280;45870;42.528;26.740;2022-12-29T09:18:29;100848.13;;;14.56;47.11
60019;BME280;45870;42.528;26.740;2022-12-29T09:20:57;100844.22;;;15.05;45.93
60019;BME280;45870;42.528;26.740;2022-12-29T09:23:24;100850.94;;;15.72;43.88
60019;BME280;45870;42.528;26.740;2022-12-29T09:25:49;100821.38;;;16.04;42.94
60019;BME280;45870;42.528;26.740;2022-12-29T09:28:15;100846.59;;;14.30;47.03
60019;BME280;45870;42.528;26.740;2022-12-29T09:30:41;100823.38;;;14.34;47.11
60019;BME280;45870;42.528;26.740;2022-12-29T09:33:07;100775.28;;;14.76;46.15
60019;BME280;45870;42.528;26.740;2022-12-29T09:35:33;100837.09;;;15.74;44.60
60019;BME280;45870;42.528;26.740;2022-12-29T09:37:59;100840.09;;;13.65;49.56
60019;BME280;45870;42.528;26.740;2022-12-29T09:40:30;100827.16;;;14.15;48.38
60019;BME280;45870;42.528;26.740;2022-12-29T09:43:16;100821.13;;;13.29;50.46
60019;BME280;45870;42.528;26.740;2022-12-29T09:48:45;100830.09;;;13.05;50.66
60019;BME280;45870;42.528;26.740;2022-12-29T09:51:15;100824.25;;;13.98;47.97
60019;BME280;45870;42.528;26.740;2022-12-29T09:53:46;100822.47;;;13.92;49.05
60019;BME280;45870;42.528;26.740;2022-12-29T09:56:21;100821.56;;;13.62;48.86
60019;BME280;45870;42.528;26.740;2022-12-29T09:58:59;100820.28;;;13.83;49.44
60019;BME280;45870;42.528;26.740;2022-12-29T10:01:52;100819.00;;;13.31;50.02
60019;BME280;45870;42.528;26.740;2022-12-29T10:04:19;100729.00;;;13.22;49.81
60019;BME280;45870;42.528;26.740;2022-12-29T10:06:57;100792.06;;;13.54;48.89
60019;BME280;45870;42.528;26.740;2022-12-29T10:20:38;100805.22;;;13.69;48.88
60019;BME280;45870;42.528;26.740;2022-12-29T10:25:39;100783.34;;;13.82;48.62
60019;BME280;45870;42.528;26.740;2022-12-29T10:28:18;100791.44;;;13.16;49.54
60019;BME280;45870;42.528;26.740;2022-12-29T10:30:47;100780.16;;;14.03;48.39
60019;BME280;45870;42.528;26.740;2022-12-29T10:33:18;100790.88;;;13.80;48.73
60019;BME280;45870;42.528;26.740;2022-12-29T10:35:47;100779.31;;;15.09;45.27
60019;BME280;45870;42.528;26.740;2022-12-29T10:40:53;100764.50;;;14.93;45.36
60019;BME280;45870;42.528;26.740;2022-12-29T10:43:28;100733.06;;;13.31;48.36
60019;BME280;45870;42.528;26.740;2022-12-29T10:45:59;100713.44;;;12.93;48.77
60019;BME280;45870;42.528;26.740;2022-12-29T10:48:32;100765.94;;;15.07;45.42
60019;BME280;45870;42.528;26.740;2022-12-29T10:51:01;100699.72;;;13.90;46.91
60019;BME280;45870;42.528;26.740;2022-12-29T10:53:40;100760.41;;;13.96;47.08
60019;BME280;45870;42.528;26.740;2022-12-29T10:56:21;100765.56;;;15.50;44.24
60019;BME280;45870;42.528;26.740;2022-12-29T10:58:51;100611.53;;;12.74;47.72
60019;BME280;45870;42.528;26.740;2022-12-29T11:01:20;100761.41;;;14.13;46.91
60019;BME280;45870;42.528;26.740;2022-12-29T11:04:03;100763.56;;;14.76;46.21
60019;BME280;45870;42.528;26.740;2022-12-29T11:06:29;100753.41;;;16.26;43.59
60019;BME280;45870;42.528;26.740;2022-12-29T11:09:02;100748.84;;;15.46;44.22
60019;BME280;45870;42.528;26.740;2022-12-29T11:11:34;100756.59;;;15.03;45.50
60019;BME280;45870;42.528;26.740;2022-12-29T11:14:10;100756.81;;;14.78;46.02
60019;BME280;45870;42.528;26.740;2022-12-29T11:16:37;100724.34;;;14.83;44.88
60019;BME280;45870;42.528;26.740;2022-12-29T11:19:03;100745.72;;;16.06;43.21
60019;BME280;45870;42.528;26.740;2022-12-29T11:21:35;100745.34;;;14.65;46.06
60019;BME280;45870;42.528;26.740;2022-12-29T11:24:25;100744.63;;;14.34;46.93
60019;BME280;45870;42.528;26.740;2022-12-29T11:26:56;100747.88;;;15.64;43.69
60019;BME280;45870;42.528;26.740;2022-12-29T11:29:39;100741.81;;;14.64;45.86
60019;BME280;45870;42.528;26.740;2022-12-29T11:32:16;100738.25;;;15.22;44.79
60019;BME280;45870;42.528;26.740;2022-12-29T11:34:42;100724.66;;;15.10;44.58
60019;BME280;45870;42.528;26.740;2022-12-29T11:40:18;100725.69;;;15.44;44.48
60019;BME280;45870;42.528;26.740;2022-12-29T11:42:50;100722.94;;;14.81;46.36
60019;BME280;45870;42.528;26.740;2022-12-29T11:45:25;100705.19;;;14.43;46.85
60019;BME280;45870;42.528;26.740;2022-12-29T11:47:57;100715.66;;;15.73;43.68
60019;BME280;45870;42.528;26.740;2022-12-29T11:50:30;100721.88;;;15.85;43.49
60019;BME280;45870;42.528;26.740;2022-12-29T11:53:07;100676.97;;;16.49;41.71
60019;BME280;45870;42.528;26.740;2022-12-29T11:55:39;100713.97;;;16.28;43.38
60019;BME280;45870;42.528;26.740;2022-12-29T11:58:11;100717.75;;;15.82;42.81
60019;BME280;45870;42.528;26.740;2022-12-29T12:00:39;100719.03;;;14.77;45.64
60019;BME280;45870;42.528;26.740;2022-12-29T12:03:17;100717.41;;;15.39;44.22
60019;BME280;45870;42.528;26.740;2022-12-29T12:05:55;100703.16;;;15.60;43.60
60019;BME280;45870;42.528;26.740;2022-12-29T12:16:14;100707.41;;;15.96;44.02
60019;BME280;45870;42.528;26.740;2022-12-29T12:19:02;100712.66;;;16.64;43.28
60019;BME280;45870;42.528;26.740;2022-12-29T12:21:39;100699.13;;;16.36;43.55
60019;BME280;45870;42.528;26.740;2022-12-29T12:35:13;100640.91;;;15.64;43.58
60019;BME280;45870;42.528;26.740;2022-12-29T12:43:49;100691.72;;;17.25;41.05
60019;BME280;45870;42.528;26.740;2022-12-29T13:00:07;100686.56;;;16.68;41.65
60019;BME280;45870;42.528;26.740;2022-12-29T13:02:59;100685.72;;;16.68;41.76
60019;BME280;45870;42.528;26.740;2022-12-29T13:05:50;100680.44;;;16.78;41.58
60019;BME280;45870;42.528;26.740;2022-12-29T13:11:04;100623.19;;;17.21;39.55
60019;BME280;45870;42.528;26.740;2022-12-29T13:13:53;100584.03;;;16.12;41.08
60019;BME280;45870;42.528;26.740;2022-12-29T13:16:41;100683.09;;;16.73;40.89
60019;BME280;45870;42.528;26.740;2022-12-29T13:19:20;100688.41;;;17.23;40.04
60019;BME280;45870;42.528;26.740;2022-12-29T13:24:44;100680.28;;;16.34;42.01
60019;BME280;45870;42.528;26.740;2022-12-29T13:30:18;100590.47;;;15.89;41.87
60019;BME280;45870;42.528;26.740;2022-12-29T13:38:46;100687.47;;;17.12;40.25
60019;BME280;45870;42.528;26.740;2022-12-29T13:41:36;100408.97;;;14.50;42.71
60019;BME280;45870;42.528;26.740;2022-12-29T13:44:05;100684.78;;;17.39;40.14
60019;BME280;45870;42.528;26.740;2022-12-29T13:46:39;100650.63;;;16.38;41.68
60019;BME280;45870;42.528;26.740;2022-12-29T13:49:17;100675.72;;;18.09;38.33
60019;BME280;45870;42.528;26.740;2022-12-29T13:51:53;100684.28;;;18.86;36.74
60019;BME280;45870;42.528;26.740;2022-12-29T13:57:26;100679.97;;;17.68;39.51
60019;BME280;45870;42.528;26.740;2022-12-29T14:00:04;100689.22;;;16.63;41.31
60019;BME280;45870;42.528;26.740;2022-12-29T14:02:50;100687.59;;;18.88;37.48
60019;BME280;45870;42.528;26.740;2022-12-29T14:07:57;100687.19;;;19.21;36.14
60019;BME280;45870;42.528;26.740;2022-12-29T14:10:37;100683.59;;;18.64;36.94
60019;BME280;45870;42.528;26.740;2022-12-29T14:15:32;100690.69;;;17.74;38.47
60019;BME280;45870;42.528;26.740;2022-12-29T14:18:04;100630.50;;;17.91;37.22
60019;BME280;45870;42.528;26.740;2022-12-29T14:20:31;100635.91;;;18.50;36.56
60019;BME280;45870;42.528;26.740;2022-12-29T14:23:15;100692.66;;;19.16;35.65
60019;BME280;45870;42.528;26.740;2022-12-29T14:25:59;100688.22;;;17.73;38.55
60019;BME280;45870;42.528;26.740;2022-12-29T14:28:27;100613.16;;;17.27;38.33
60019;BME280;45870;42.528;26.740;2022-12-29T14:30:56;100690.31;;;18.19;37.29
60019;BME280;45870;42.528;26.740;2022-12-29T14:33:26;100692.69;;;17.84;38.07
60019;BME280;45870;42.528;26.740;2022-12-29T14:35:53;100696.66;;;17.49;38.78
60019;BME280;45870;42.528;26.740;2022-12-29T14:38:25;100705.88;;;17.43;38.66
60019;BME280;45870;42.528;26.740;2022-12-29T14:40:52;100680.22;;;17.44;38.38
60019;BME280;45870;42.528;26.740;2022-12-29T14:43:38;100698.75;;;17.42;38.99
60019;BME280;45870;42.528;26.740;2022-12-29T14:46:07;100691.22;;;17.06;39.15
60019;BME280;45870;42.528;26.740;2022-12-29T14:48:39;100702.28;;;16.99;39.28
60019;BME280;45870;42.528;26.740;2022-12-29T14:51:30;100708.38;;;16.68;40.24